sensor_id;sensor_type;location;lat;lon;timestamp;temperature;humidity
30336;DHT22;17142;47.990;7.846;2022-07-10T00:01:17;18.00;99.90
30336;DHT22;17142;47.990;7.846;2022-07-10T00:03:43;17.90;99.90
30336;DHT22;17142;47.990;7.846;2022-07-10T00:06:11;17.80;99.90
30336;DHT22;17142;47.990;7.846;2022-07-10T00:08:40;17.70;99.90
30336;DHT22;17142;47.990;7.846;2022-07-10T00:11:09;17.60;99.90
30336;DHT22;17142;47.990;7.846;2022-07-10T00:13:35;17.60;99.90
30336;DHT22;17142;47.990;7.846;2022-07-10T00:16:01;17.60;99.90
30336;DHT22;17142;47.990;7.846;2022-07-10T00:18:28;17.50;99.90
30336;DHT22;17142;47.990;7.846;2022-07-10T00:20:54;17.50;99.90
30336;DHT22;17142;47.990;7.846;2022-07-10T00:23:20;17.50;99.90
30336;DHT22;17142;47.990;7.846;2022-07-10T00:25:45;17.40;99.90
30336;DHT22;17142;47.990;7.846;2022-07-10T00:28:11;17.40;99.90
30336;DHT22;17142;47.990;7.846;2022-07-10T00:30:37;17.30;99.90
30336;DHT22;17142;47.990;7.846;2022-07-10T00:33:03;17.30;99.90
30336;DHT22;17142;47.990;7.846;2022-07-10T00:35:31;17.20;99.90
30336;DHT22;17142;47.990;7.846;2022-07-10T00:37:57;17.10;99.90
30336;DHT22;17142;47.990;7.846;2022-07-10T00:40:23;17.10;99.90
30336;DHT22;17142;47.990;7.846;2022-07-10T00:42:48;17.10;99.90
30336;DHT22;17142;47.990;7.846;2022-07-10T00:45:15;17.10;99.90
30336;DHT22;17142;47.990;7.846;2022-07-10T00:47:40;17.10;99.90
30336;DHT22;17142;47.990;7.846;2022-07-10T00:50:06;17.10;99.90
30336;DHT22;17142;47.990;7.846;2022-07-10T00:52:33;17.10;99.90
30336;DHT22;17142;47.990;7.846;2022-07-10T00:55:07;17.10;99.90
30336;DHT22;17142;47.990;7.846;2022-07-10T00:57:35;17.00;99.90
30336;DHT22;17142;47.990;7.846;2022-07-10T01:00:04;16.90;99.90
30336;DHT22;17142;47.990;7.846;2022-07-10T01:02:29;16.80;99.90
30336;DHT22;17142;47.990;7.846;2022-07-10T01:04:57;16.70;99.90
30336;DHT22;17142;47.990;7.846;2022-07-10T01:07:25;16.70;99.90
30336;DHT22;17142;47.990;7.846;2022-07-10T01:09:56;16.60;99.90
30336;DHT22;17142;47.990;7.846;2022-07-10T01:12:22;16.50;99.90
30336;DHT22;17142;47.990;7.846;2022-07-10T01:14:47;16.50;99.90
30336;DHT22;17142;47.990;7.846;2022-07-10T01:17:16;16.50;99.90
30336;DHT22;17142;47.990;7.846;2022-07-10T01:19:45;16.40;99.90
30336;DHT22;17142;47.990;7.846;2022-07-10T01:22:10;16.40;99.90
30336;DHT22;17142;47.990;7.846;2022-07-10T01:24:36;16.30;99.90
30336;DHT22;17142;47.990;7.846;2022-07-10T01:27:02;16.20;99.90
30336;DHT22;17142;47.990;7.846;2022-07-10T01:29:28;16.10;99.90
30336;DHT22;17142;47.990;7.846;2022-07-10T01:31:54;16.00;99.90
30336;DHT22;17142;47.990;7.846;2022-07-10T01:34:20;16.00;99.90
30336;DHT22;17142;47.990;7.846;2022-07-10T01:36:48;16.00;99.90
30336;DHT22;17142;47.990;7.846;2022-07-10T01:39:14;15.90;99.90
30336;DHT22;17142;47.990;7.846;2022-07-10T01:41:42;15.90;99.90
30336;DHT22;17142;47.990;7.846;2022-07-10T01:44:10;15.90;99.90
30336;DHT22;17142;47.990;7.846;2022-07-10T01:46:46;15.80;99.90
30336;DHT22;17142;47.990;7.846;2022-07-10T01:49:12;15.80;99.90
30336;DHT22;17142;47.990;7.846;2022-07-10T01:51:38;15.80;99.90
30336;DHT22;17142;47.990;7.846;2022-07-10T01:54:06;15.80;99.90
30336;DHT22;17142;47.990;7.846;2022-07-10T01:56:32;15.70;99.90
30336;DHT22;17142;47.990;7.846;2022-07-10T01:59:00;15.70;99.90
30336;DHT22;17142;47.990;7.846;2022-07-10T02:01:29;15.60;99.90
30336;DHT22;17142;47.990;7.846;2022-07-10T02:03:54;15.60;99.90
30336;DHT22;17142;47.990;7.846;2022-07-10T02:06:38;15.50;99.90
30336;DHT22;17142;47.990;7.846;2022-07-10T02:09:07;15.40;99.90
30336;DHT22;17142;47.990;7.846;2022-07-10T02:11:32;15.30;99.90
30336;DHT22;17142;47.990;7.846;2022-07-10T02:14:02;15.20;99.90
30336;DHT22;17142;47.990;7.846;2022-07-10T02:16:28;15.30;99.90
30336;DHT22;17142;47.990;7.846;2022-07-10T02:18:54;15.20;99.90
30336;DHT22;17142;47.990;7.846;2022-07-10T02:21:22;15.20;99.90
30336;DHT22;17142;47.990;7.846;2022-07-10T02:23:50;15.20;99.90
30336;DHT22;17142;47.990;7.846;2022-07-10T02:26:20;15.20;99.90
30336;DHT22;17142;47.990;7.846;2022-07-10T02:28:50;15.30;99.90
30336;DHT22;17142;47.990;7.846;2022-07-10T02:31:16;15.30;99.90
30336;DHT22;17142;47.990;7.846;2022-07-10T02:33:41;15.30;99.90
30336;DHT22;17142;47.990;7.846;2022-07-10T02:36:07;15.20;99.90
30336;DHT22;17142;47.990;7.846;2022-07-10T02:38:35;15.10;99.90
30336;DHT22;17142;47.990;7.846;2022-07-10T02:41:00;15.10;99.90
30336;DHT22;17142;47.990;7.846;2022-07-10T02:43:26;15.00;99.90
30336;DHT22;17142;47.990;7.846;2022-07-10T02:45:52;15.00;99.90
30336;DHT22;17142;47.990;7.846;2022-07-10T02:48:17;14.90;99.90
30336;DHT22;17142;47.990;7.846;2022-07-10T02:50:43;15.00;99.90
30336;DHT22;17142;47.990;7.846;2022-07-10T02:53:09;15.00;99.90
30336;DHT22;17142;47.990;7.846;2022-07-10T02:55:34;15.00;99.90
30336;DHT22;17142;47.990;7.846;2022-07-10T02:58:05;14.90;99.90
30336;DHT22;17142;47.990;7.846;2022-07-10T03:00:30;14.90;99.90
30336;DHT22;17142;47.990;7.846;2022-07-10T03:02:56;14.80;99.90
30336;DHT22;17142;47.990;7.846;2022-07-10T03:05:22;14.80;99.90
30336;DHT22;17142;47.990;7.846;2022-07-10T03:07:50;14.70;99.90
30336;DHT22;17142;47.990;7.846;2022-07-10T03:10:16;14.70;99.90
30336;DHT22;17142;47.990;7.846;2022-07-10T03:12:42;14.70;99.90
30336;DHT22;17142;47.990;7.846;2022-07-10T03:15:10;14.70;99.90
30336;DHT22;17142;47.990;7.846;2022-07-10T03:17:35;14.80;99.90
30336;DHT22;17142;47.990;7.846;2022-07-10T03:20:05;14.80;99.90
30336;DHT22;17142;47.990;7.846;2022-07-10T03:22:34;14.80;99.90
30336;DHT22;17142;47.990;7.846;2022-07-10T03:25:00;14.90;99.90
30336;DHT22;17142;47.990;7.846;2022-07-10T03:27:28;14.80;99.90
30336;DHT22;17142;47.990;7.846;2022-07-10T03:29:56;14.80;99.90
30336;DHT22;17142;47.990;7.846;2022-07-10T03:32:21;14.80;99.90
30336;DHT22;17142;47.990;7.846;2022-07-10T03:34:47;14.70;99.90
30336;DHT22;17142;47.990;7.846;2022-07-10T03:37:13;14.60;99.90
30336;DHT22;17142;47.990;7.846;2022-07-10T03:39:38;14.60;99.90
30336;DHT22;17142;47.990;7.846;2022-07-10T03:42:04;14.50;99.90
30336;DHT22;17142;47.990;7.846;2022-07-10T03:44:33;14.50;99.90
30336;DHT22;17142;47.990;7.846;2022-07-10T03:46:59;14.50;99.90
30336;DHT22;17142;47.990;7.846;2022-07-10T03:49:27;14.60;99.90
30336;DHT22;17142;47.990;7.846;2022-07-10T03:51:53;14.60;99.90
30336;DHT22;17142;47.990;7.846;2022-07-10T03:54:19;14.60;99.90
30336;DHT22;17142;47.990;7.846;2022-07-10T03:56:44;14.70;99.90
30336;DHT22;17142;47.990;7.846;2022-07-10T03:59:29;14.70;99.90
30336;DHT22;17142;47.990;7.846;2022-07-10T04:01:54;14.80;99.90
30336;DHT22;17142;47.990;7.846;2022-07-10T04:04:22;14.70;99.90
30336;DHT22;17142;47.990;7.846;2022-07-10T04:06:48;14.70;99.90
30336;DHT22;17142;47.990;7.846;2022-07-10T04:09:16;14.80;99.90
30336;DHT22;17142;47.990;7.846;2022-07-10T04:11:42;14.80;99.90
30336;DHT22;17142;47.990;7.846;2022-07-10T04:14:08;14.90;99.90
30336;DHT22;17142;47.990;7.846;2022-07-10T04:16:35;14.90;99.90
30336;DHT22;17142;47.990;7.846;2022-07-10T04:19:01;15.00;99.90
30336;DHT22;17142;47.990;7.846;2022-07-10T04:21:27;15.00;99.90
30336;DHT22;17142;47.990;7.846;2022-07-10T04:23:54;15.10;99.90
30336;DHT22;17142;47.990;7.846;2022-07-10T04:26:20;15.20;99.90
30336;DHT22;17142;47.990;7.846;2022-07-10T04:28:46;15.20;99.90
30336;DHT22;17142;47.990;7.846;2022-07-10T04:31:11;15.30;99.90
30336;DHT22;17142;47.990;7.846;2022-07-10T04:33:37;15.40;99.90
30336;DHT22;17142;47.990;7.846;2022-07-10T04:36:08;15.50;99.90
30336;DHT22;17142;47.990;7.846;2022-07-10T04:38:33;15.70;99.90
30336;DHT22;17142;47.990;7.846;2022-07-10T04:41:06;16.30;99.90
30336;DHT22;17142;47.990;7.846;2022-07-10T04:43:31;17.30;99.90
30336;DHT22;17142;47.990;7.846;2022-07-10T04:45:59;18.30;99.90
30336;DHT22;17142;47.990;7.846;2022-07-10T04:48:25;19.20;99.90
30336;DHT22;17142;47.990;7.846;2022-07-10T04:50:51;19.60;99.90
30336;DHT22;17142;47.990;7.846;2022-07-10T04:53:19;19.40;99.90
30336;DHT22;17142;47.990;7.846;2022-07-10T04:55:45;19.10;99.90
30336;DHT22;17142;47.990;7.846;2022-07-10T04:58:11;18.80;99.90
30336;DHT22;17142;47.990;7.846;2022-07-10T05:00:36;18.60;99.90
30336;DHT22;17142;47.990;7.846;2022-07-10T05:03:02;18.50;99.90
30336;DHT22;17142;47.990;7.846;2022-07-10T05:05:30;18.50;99.90
30336;DHT22;17142;47.990;7.846;2022-07-10T05:07:55;18.50;99.90
30336;DHT22;17142;47.990;7.846;2022-07-10T05:10:21;18.40;99.90
30336;DHT22;17142;47.990;7.846;2022-07-10T05:12:47;18.40;99.90
30336;DHT22;17142;47.990;7.846;2022-07-10T05:15:12;18.30;99.90
30336;DHT22;17142;47.990;7.846;2022-07-10T05:17:40;18.30;99.90
30336;DHT22;17142;47.990;7.846;2022-07-10T05:20:06;18.40;99.90
30336;DHT22;17142;47.990;7.846;2022-07-10T05:22:32;18.60;99.90
30336;DHT22;17142;47.990;7.846;2022-07-10T05:24:57;18.80;99.90
30336;DHT22;17142;47.990;7.846;2022-07-10T05:27:25;19.20;99.90
30336;DHT22;17142;47.990;7.846;2022-07-10T05:29:54;19.30;99.90
30336;DHT22;17142;47.990;7.846;2022-07-10T05:32:20;19.40;99.90
30336;DHT22;17142;47.990;7.846;2022-07-10T05:34:47;19.80;99.90
30336;DHT22;17142;47.990;7.846;2022-07-10T05:37:12;19.90;99.90
30336;DHT22;17142;47.990;7.846;2022-07-10T05:39:38;20.00;99.90
30336;DHT22;17142;47.990;7.846;2022-07-10T05:42:04;20.00;99.90
30336;DHT22;17142;47.990;7.846;2022-07-10T05:44:29;20.30;99.90
30336;DHT22;17142;47.990;7.846;2022-07-10T05:46:55;20.90;99.90
30336;DHT22;17142;47.990;7.846;2022-07-10T05:49:23;21.60;99.90
30336;DHT22;17142;47.990;7.846;2022-07-10T05:51:51;21.50;99.10
30336;DHT22;17142;47.990;7.846;2022-07-10T05:54:17;21.30;99.60
30336;DHT22;17142;47.990;7.846;2022-07-10T05:56:45;21.40;99.60
30336;DHT22;17142;47.990;7.846;2022-07-10T05:59:10;21.40;98.60
30336;DHT22;17142;47.990;7.846;2022-07-10T06:01:38;21.20;99.30
30336;DHT22;17142;47.990;7.846;2022-07-10T06:04:06;21.20;98.80
30336;DHT22;17142;47.990;7.846;2022-07-10T06:06:34;21.10;98.80
30336;DHT22;17142;47.990;7.846;2022-07-10T06:09:02;21.10;98.40
30336;DHT22;17142;47.990;7.846;2022-07-10T06:11:30;21.20;98.30
30336;DHT22;17142;47.990;7.846;2022-07-10T06:13:56;21.50;97.80
30336;DHT22;17142;47.990;7.846;2022-07-10T06:16:22;21.70;97.60
30336;DHT22;17142;47.990;7.846;2022-07-10T06:18:48;21.60;96.90
30336;DHT22;17142;47.990;7.846;2022-07-10T06:21:13;21.30;97.20
30336;DHT22;17142;47.990;7.846;2022-07-10T06:23:39;20.80;97.80
30336;DHT22;17142;47.990;7.846;2022-07-10T06:26:07;20.60;98.80
30336;DHT22;17142;47.990;7.846;2022-07-10T06:28:34;20.70;98.50
30336;DHT22;17142;47.990;7.846;2022-07-10T06:31:02;20.80;98.70
30336;DHT22;17142;47.990;7.846;2022-07-10T06:33:31;21.00;98.10
30336;DHT22;17142;47.990;7.846;2022-07-10T06:35:57;21.10;97.60
30336;DHT22;17142;47.990;7.846;2022-07-10T06:38:23;21.00;97.50
30336;DHT22;17142;47.990;7.846;2022-07-10T06:40:51;21.20;97.00
30336;DHT22;17142;47.990;7.846;2022-07-10T06:43:17;21.30;96.80
30336;DHT22;17142;47.990;7.846;2022-07-10T06:45:44;21.20;96.40
30336;DHT22;17142;47.990;7.846;2022-07-10T06:48:14;21.00;96.90
30336;DHT22;17142;47.990;7.846;2022-07-10T06:50:44;20.80;97.20
30336;DHT22;17142;47.990;7.846;2022-07-10T06:53:12;20.70;97.60
30336;DHT22;17142;47.990;7.846;2022-07-10T06:55:38;20.50;97.90
30336;DHT22;17142;47.990;7.846;2022-07-10T06:58:03;20.30;98.30
30336;DHT22;17142;47.990;7.846;2022-07-10T07:00:29;20.10;98.90
30336;DHT22;17142;47.990;7.846;2022-07-10T07:02:57;20.20;98.90
30336;DHT22;17142;47.990;7.846;2022-07-10T07:05:25;20.20;98.10
30336;DHT22;17142;47.990;7.846;2022-07-10T07:07:50;20.10;98.30
30336;DHT22;17142;47.990;7.846;2022-07-10T07:10:18;20.00;98.60
30336;DHT22;17142;47.990;7.846;2022-07-10T07:12:44;20.10;98.60
30336;DHT22;17142;47.990;7.846;2022-07-10T07:15:10;20.60;98.20
30336;DHT22;17142;47.990;7.846;2022-07-10T07:17:40;21.10;96.90
30336;DHT22;17142;47.990;7.846;2022-07-10T07:20:28;21.40;96.00
30336;DHT22;17142;47.990;7.846;2022-07-10T07:23:12;21.40;95.30
30336;DHT22;17142;47.990;7.846;2022-07-10T07:25:39;21.10;95.40
30336;DHT22;17142;47.990;7.846;2022-07-10T07:28:08;21.00;95.50
30336;DHT22;17142;47.990;7.846;2022-07-10T07:30:33;21.00;95.80
30336;DHT22;17142;47.990;7.846;2022-07-10T07:33:01;21.40;95.40
30336;DHT22;17142;47.990;7.846;2022-07-10T07:35:31;22.00;94.20
30336;DHT22;17142;47.990;7.846;2022-07-10T07:38:00;22.40;93.00
30336;DHT22;17142;47.990;7.846;2022-07-10T07:40:26;22.50;93.20
30336;DHT22;17142;47.990;7.846;2022-07-10T07:42:55;23.10;92.00
30336;DHT22;17142;47.990;7.846;2022-07-10T07:45:24;23.30;90.80
30336;DHT22;17142;47.990;7.846;2022-07-10T07:47:53;23.60;89.70
30336;DHT22;17142;47.990;7.846;2022-07-10T07:50:30;23.80;88.30
30336;DHT22;17142;47.990;7.846;2022-07-10T07:53:03;24.10;87.90
30336;DHT22;17142;47.990;7.846;2022-07-10T07:55:31;25.10;84.80
30336;DHT22;17142;47.990;7.846;2022-07-10T07:57:57;25.50;79.30
30336;DHT22;17142;47.990;7.846;2022-07-10T08:00:27;25.70;78.10
30336;DHT22;17142;47.990;7.846;2022-07-10T08:02:54;25.90;75.10
30336;DHT22;17142;47.990;7.846;2022-07-10T08:05:23;25.50;75.80
30336;DHT22;17142;47.990;7.846;2022-07-10T08:07:59;25.50;75.00
30336;DHT22;17142;47.990;7.846;2022-07-10T08:10:32;25.20;75.00
30336;DHT22;17142;47.990;7.846;2022-07-10T08:12:58;25.20;75.70
30336;DHT22;17142;47.990;7.846;2022-07-10T08:15:26;25.10;74.50
30336;DHT22;17142;47.990;7.846;2022-07-10T08:17:54;24.80;76.60
30336;DHT22;17142;47.990;7.846;2022-07-10T08:20:21;24.90;75.30
30336;DHT22;17142;47.990;7.846;2022-07-10T08:22:47;24.90;75.80
30336;DHT22;17142;47.990;7.846;2022-07-10T08:25:14;25.40;73.20
30336;DHT22;17142;47.990;7.846;2022-07-10T08:27:42;25.70;71.60
30336;DHT22;17142;47.990;7.846;2022-07-10T08:30:08;25.40;71.60
30336;DHT22;17142;47.990;7.846;2022-07-10T08:32:35;25.20;71.60
30336;DHT22;17142;47.990;7.846;2022-07-10T08:35:02;25.00;72.00
30336;DHT22;17142;47.990;7.846;2022-07-10T08:37:28;24.70;72.60
30336;DHT22;17142;47.990;7.846;2022-07-10T08:39:54;24.40;73.10
30336;DHT22;17142;47.990;7.846;2022-07-10T08:42:23;23.80;74.60
30336;DHT22;17142;47.990;7.846;2022-07-10T08:44:50;23.20;77.00
30336;DHT22;17142;47.990;7.846;2022-07-10T08:47:23;23.50;78.30
30336;DHT22;17142;47.990;7.846;2022-07-10T08:49:51;24.20;75.00
30336;DHT22;17142;47.990;7.846;2022-07-10T08:55:01;24.60;72.50
30336;DHT22;17142;47.990;7.846;2022-07-10T08:57:28;24.40;72.60
30336;DHT22;17142;47.990;7.846;2022-07-10T08:59:55;24.20;73.60
30336;DHT22;17142;47.990;7.846;2022-07-10T09:02:23;24.60;72.40
30336;DHT22;17142;47.990;7.846;2022-07-10T09:04:48;24.60;72.50
30336;DHT22;17142;47.990;7.846;2022-07-10T09:07:16;24.60;71.40
30336;DHT22;17142;47.990;7.846;2022-07-10T09:09:52;24.20;72.00
30336;DHT22;17142;47.990;7.846;2022-07-10T09:12:22;24.00;73.00
30336;DHT22;17142;47.990;7.846;2022-07-10T09:14:48;24.00;73.10
30336;DHT22;17142;47.990;7.846;2022-07-10T09:17:14;24.10;72.50
30336;DHT22;17142;47.990;7.846;2022-07-10T09:19:41;23.50;73.50
30336;DHT22;17142;47.990;7.846;2022-07-10T09:22:08;23.10;75.00
30336;DHT22;17142;47.990;7.846;2022-07-10T09:27:06;22.70;77.00
30336;DHT22;17142;47.990;7.846;2022-07-10T09:29:33;22.50;78.00
30336;DHT22;17142;47.990;7.846;2022-07-10T09:32:11;22.40;78.40
30336;DHT22;17142;47.990;7.846;2022-07-10T09:34:45;22.20;79.00
30336;DHT22;17142;47.990;7.846;2022-07-10T09:37:25;22.20;79.30
30336;DHT22;17142;47.990;7.846;2022-07-10T09:42:31;22.50;78.30
30336;DHT22;17142;47.990;7.846;2022-07-10T09:47:53;23.00;77.00
30336;DHT22;17142;47.990;7.846;2022-07-10T09:50:28;23.20;76.80
30336;DHT22;17142;47.990;7.846;2022-07-10T09:53:08;23.00;76.00
30336;DHT22;17142;47.990;7.846;2022-07-10T09:55:37;22.80;78.10
30336;DHT22;17142;47.990;7.846;2022-07-10T09:58:05;22.30;78.30
30336;DHT22;17142;47.990;7.846;2022-07-10T10:00:33;22.20;78.80
30336;DHT22;17142;47.990;7.846;2022-07-10T10:03:09;22.20;78.40
30336;DHT22;17142;47.990;7.846;2022-07-10T10:06:01;22.10;79.00
30336;DHT22;17142;47.990;7.846;2022-07-10T10:08:34;22.40;79.50
30336;DHT22;17142;47.990;7.846;2022-07-10T10:11:01;22.60;77.90
30336;DHT22;17142;47.990;7.846;2022-07-10T10:13:28;22.70;77.60
30336;DHT22;17142;47.990;7.846;2022-07-10T10:15:56;22.60;78.00
30336;DHT22;17142;47.990;7.846;2022-07-10T10:18:25;22.30;78.10
30336;DHT22;17142;47.990;7.846;2022-07-10T10:20:53;22.10;78.90
30336;DHT22;17142;47.990;7.846;2022-07-10T10:23:23;22.10;79.20
30336;DHT22;17142;47.990;7.846;2022-07-10T10:25:54;21.90;79.50
30336;DHT22;17142;47.990;7.846;2022-07-10T10:28:24;21.70;80.60
30336;DHT22;17142;47.990;7.846;2022-07-10T10:31:00;21.80;79.80
30336;DHT22;17142;47.990;7.846;2022-07-10T10:35:59;22.00;79.50
30336;DHT22;17142;47.990;7.846;2022-07-10T10:38:37;22.00;78.70
30336;DHT22;17142;47.990;7.846;2022-07-10T10:41:26;21.80;79.00
30336;DHT22;17142;47.990;7.846;2022-07-10T10:46:34;21.80;78.10
30336;DHT22;17142;47.990;7.846;2022-07-10T10:49:09;21.80;78.70
30336;DHT22;17142;47.990;7.846;2022-07-10T10:52:00;21.90;78.80
30336;DHT22;17142;47.990;7.846;2022-07-10T10:54:30;22.20;76.50
30336;DHT22;17142;47.990;7.846;2022-07-10T10:57:20;22.10;76.20
30336;DHT22;17142;47.990;7.846;2022-07-10T11:08:02;22.10;75.20
30336;DHT22;17142;47.990;7.846;2022-07-10T11:10:32;22.00;74.80
30336;DHT22;17142;47.990;7.846;2022-07-10T11:13:13;22.10;74.80
30336;DHT22;17142;47.990;7.846;2022-07-10T11:16:00;22.20;75.00
30336;DHT22;17142;47.990;7.846;2022-07-10T11:18:26;22.30;73.70
30336;DHT22;17142;47.990;7.846;2022-07-10T11:20:56;22.50;73.70
30336;DHT22;17142;47.990;7.846;2022-07-10T11:23:56;22.50;73.10
30336;DHT22;17142;47.990;7.846;2022-07-10T11:26:55;22.50;73.10
30336;DHT22;17142;47.990;7.846;2022-07-10T11:29:26;22.70;72.70
30336;DHT22;17142;47.990;7.846;2022-07-10T11:31:53;22.70;71.50
30336;DHT22;17142;47.990;7.846;2022-07-10T11:34:19;22.70;70.70
30336;DHT22;17142;47.990;7.846;2022-07-10T11:36:47;22.60;70.90
30336;DHT22;17142;47.990;7.846;2022-07-10T11:39:13;22.70;70.90
30336;DHT22;17142;47.990;7.846;2022-07-10T11:41:43;22.80;70.60
30336;DHT22;17142;47.990;7.846;2022-07-10T11:44:18;22.80;69.20
30336;DHT22;17142;47.990;7.846;2022-07-10T11:46:46;22.70;70.30
30336;DHT22;17142;47.990;7.846;2022-07-10T11:49:15;22.60;69.90
30336;DHT22;17142;47.990;7.846;2022-07-10T11:51:42;22.70;70.80
30336;DHT22;17142;47.990;7.846;2022-07-10T11:54:15;22.80;68.80
30336;DHT22;17142;47.990;7.846;2022-07-10T11:56:53;22.90;69.30
30336;DHT22;17142;47.990;7.846;2022-07-10T11:59:25;22.90;68.70
30336;DHT22;17142;47.990;7.846;2022-07-10T12:01:52;22.80;66.80
30336;DHT22;17142;47.990;7.846;2022-07-10T12:04:22;22.70;66.90
30336;DHT22;17142;47.990;7.846;2022-07-10T12:06:54;22.70;66.90
30336;DHT22;17142;47.990;7.846;2022-07-10T12:09:23;22.80;66.70
30336;DHT22;17142;47.990;7.846;2022-07-10T12:12:02;22.80;64.80
30336;DHT22;17142;47.990;7.846;2022-07-10T12:14:28;22.90;64.10
30336;DHT22;17142;47.990;7.846;2022-07-10T12:16:56;23.00;60.80
30336;DHT22;17142;47.990;7.846;2022-07-10T12:21:49;23.00;57.20
30336;DHT22;17142;47.990;7.846;2022-07-10T12:24:19;22.90;58.00
30336;DHT22;17142;47.990;7.846;2022-07-10T12:26:46;22.90;58.90
30336;DHT22;17142;47.990;7.846;2022-07-10T12:31:48;23.10;57.00
30336;DHT22;17142;47.990;7.846;2022-07-10T12:34:17;23.00;56.60
30336;DHT22;17142;47.990;7.846;2022-07-10T12:36:48;23.00;55.30
30336;DHT22;17142;47.990;7.846;2022-07-10T12:39:28;23.00;54.40
30336;DHT22;17142;47.990;7.846;2022-07-10T12:44:47;23.20;55.80
30336;DHT22;17142;47.990;7.846;2022-07-10T12:47:19;23.20;53.50
30336;DHT22;17142;47.990;7.846;2022-07-10T12:49:50;23.20;52.40
30336;DHT22;17142;47.990;7.846;2022-07-10T12:52:26;23.10;53.10
30336;DHT22;17142;47.990;7.846;2022-07-10T12:57:57;23.00;53.50
30336;DHT22;17142;47.990;7.846;2022-07-10T13:00:31;23.00;53.50
30336;DHT22;17142;47.990;7.846;2022-07-10T13:05:35;23.10;52.10
30336;DHT22;17142;47.990;7.846;2022-07-10T13:08:24;23.30;51.30
30336;DHT22;17142;47.990;7.846;2022-07-10T13:10:55;23.40;53.70
30336;DHT22;17142;47.990;7.846;2022-07-10T13:13:21;23.50;56.00
30336;DHT22;17142;47.990;7.846;2022-07-10T13:15:47;23.50;53.90
30336;DHT22;17142;47.990;7.846;2022-07-10T13:18:23;23.40;54.70
30336;DHT22;17142;47.990;7.846;2022-07-10T13:20:53;23.50;54.80
30336;DHT22;17142;47.990;7.846;2022-07-10T13:23:20;23.20;53.30
30336;DHT22;17142;47.990;7.846;2022-07-10T13:25:49;23.00;54.10
30336;DHT22;17142;47.990;7.846;2022-07-10T13:28:17;23.10;54.10
30336;DHT22;17142;47.990;7.846;2022-07-10T13:30:43;23.30;53.90
30336;DHT22;17142;47.990;7.846;2022-07-10T13:33:09;23.30;53.60
30336;DHT22;17142;47.990;7.846;2022-07-10T13:35:38;23.30;53.80
30336;DHT22;17142;47.990;7.846;2022-07-10T13:38:07;23.20;51.10
30336;DHT22;17142;47.990;7.846;2022-07-10T13:40:34;23.30;52.60
30336;DHT22;17142;47.990;7.846;2022-07-10T13:43:01;23.40;50.70
30336;DHT22;17142;47.990;7.846;2022-07-10T13:45:27;23.40;52.30
30336;DHT22;17142;47.990;7.846;2022-07-10T13:48:05;23.50;51.90
30336;DHT22;17142;47.990;7.846;2022-07-10T13:50:33;23.60;50.50
30336;DHT22;17142;47.990;7.846;2022-07-10T13:53:01;23.60;49.80
30336;DHT22;17142;47.990;7.846;2022-07-10T13:55:29;23.60;48.20
30336;DHT22;17142;47.990;7.846;2022-07-10T13:57:55;23.60;49.20
30336;DHT22;17142;47.990;7.846;2022-07-10T14:00:20;23.70;48.90
30336;DHT22;17142;47.990;7.846;2022-07-10T14:02:46;23.60;49.00
30336;DHT22;17142;47.990;7.846;2022-07-10T14:05:12;23.60;48.60
30336;DHT22;17142;47.990;7.846;2022-07-10T14:07:37;23.60;48.20
30336;DHT22;17142;47.990;7.846;2022-07-10T14:10:04;23.60;48.00
30336;DHT22;17142;47.990;7.846;2022-07-10T14:12:32;23.70;48.90
30336;DHT22;17142;47.990;7.846;2022-07-10T14:14:58;23.60;48.90
30336;DHT22;17142;47.990;7.846;2022-07-10T14:17:24;23.80;48.80
30336;DHT22;17142;47.990;7.846;2022-07-10T14:19:50;23.80;48.60
30336;DHT22;17142;47.990;7.846;2022-07-10T14:22:16;23.80;49.80
30336;DHT22;17142;47.990;7.846;2022-07-10T14:24:41;23.80;50.00
30336;DHT22;17142;47.990;7.846;2022-07-10T14:27:10;23.80;50.00
30336;DHT22;17142;47.990;7.846;2022-07-10T14:29:38;23.80;49.90
30336;DHT22;17142;47.990;7.846;2022-07-10T14:32:04;24.00;48.90
30336;DHT22;17142;47.990;7.846;2022-07-10T14:34:30;24.10;48.60
30336;DHT22;17142;47.990;7.846;2022-07-10T14:36:58;24.00;48.10
30336;DHT22;17142;47.990;7.846;2022-07-10T14:39:26;23.90;47.60
30336;DHT22;17142;47.990;7.846;2022-07-10T14:41:52;23.90;48.00
30336;DHT22;17142;47.990;7.846;2022-07-10T14:44:17;24.00;48.60
30336;DHT22;17142;47.990;7.846;2022-07-10T14:46:43;23.90;48.90
30336;DHT22;17142;47.990;7.846;2022-07-10T14:49:09;23.80;48.20
30336;DHT22;17142;47.990;7.846;2022-07-10T14:51:35;23.90;49.30
30336;DHT22;17142;47.990;7.846;2022-07-10T14:54:01;24.00;48.00
30336;DHT22;17142;47.990;7.846;2022-07-10T14:56:27;23.80;49.50
30336;DHT22;17142;47.990;7.846;2022-07-10T14:58:53;23.80;49.20
30336;DHT22;17142;47.990;7.846;2022-07-10T15:01:19;23.70;50.10
30336;DHT22;17142;47.990;7.846;2022-07-10T15:03:44;23.80;49.80
30336;DHT22;17142;47.990;7.846;2022-07-10T15:06:10;23.80;49.10
30336;DHT22;17142;47.990;7.846;2022-07-10T15:08:36;23.80;49.60
30336;DHT22;17142;47.990;7.846;2022-07-10T15:11:02;23.90;49.50
30336;DHT22;17142;47.990;7.846;2022-07-10T15:13:30;24.10;47.70
30336;DHT22;17142;47.990;7.846;2022-07-10T15:15:58;24.00;48.00
30336;DHT22;17142;47.990;7.846;2022-07-10T15:18:24;23.90;48.40
30336;DHT22;17142;47.990;7.846;2022-07-10T15:20:50;23.70;47.50
30336;DHT22;17142;47.990;7.846;2022-07-10T15:23:15;23.70;48.20
30336;DHT22;17142;47.990;7.846;2022-07-10T15:25:41;23.60;48.00
30336;DHT22;17142;47.990;7.846;2022-07-10T15:28:08;23.60;47.90
30336;DHT22;17142;47.990;7.846;2022-07-10T15:30:34;23.60;47.90
30336;DHT22;17142;47.990;7.846;2022-07-10T15:33:01;23.70;48.40
30336;DHT22;17142;47.990;7.846;2022-07-10T15:35:27;23.70;47.30
30336;DHT22;17142;47.990;7.846;2022-07-10T15:37:55;23.70;46.70
30336;DHT22;17142;47.990;7.846;2022-07-10T15:40:23;23.60;46.30
30336;DHT22;17142;47.990;7.846;2022-07-10T15:42:48;23.60;46.40
30336;DHT22;17142;47.990;7.846;2022-07-10T15:45:14;23.50;46.70
30336;DHT22;17142;47.990;7.846;2022-07-10T15:47:42;23.60;46.60
30336;DHT22;17142;47.990;7.846;2022-07-10T15:50:08;23.60;46.60
30336;DHT22;17142;47.990;7.846;2022-07-10T15:52:33;23.60;45.80
30336;DHT22;17142;47.990;7.846;2022-07-10T15:55:01;23.60;44.70
30336;DHT22;17142;47.990;7.846;2022-07-10T15:57:27;23.50;44.70
30336;DHT22;17142;47.990;7.846;2022-07-10T15:59:53;23.50;45.50
30336;DHT22;17142;47.990;7.846;2022-07-10T16:02:18;23.50;46.30
30336;DHT22;17142;47.990;7.846;2022-07-10T16:04:46;23.50;46.20
30336;DHT22;17142;47.990;7.846;2022-07-10T16:07:12;23.60;46.40
30336;DHT22;17142;47.990;7.846;2022-07-10T16:09:38;23.70;45.60
30336;DHT22;17142;47.990;7.846;2022-07-10T16:12:05;23.70;45.70
30336;DHT22;17142;47.990;7.846;2022-07-10T16:14:31;23.60;45.40